sensor_id;sensor_type;location;lat;lon;timestamp;temperature;humidity
15239;DHT22;7722;53.274;9.500;2024-02-21T00:01:22;8.40;99.90
15239;DHT22;7722;53.274;9.500;2024-02-21T00:03:49;8.40;99.90
15239;DHT22;7722;53.274;9.500;2024-02-21T00:06:17;8.40;99.90
15239;DHT22;7722;53.274;9.500;2024-02-21T00:08:44;8.40;99.90
15239;DHT22;7722;53.274;9.500;2024-02-21T00:11:13;8.40;99.90
15239;DHT22;7722;53.274;9.500;2024-02-21T00:13:40;8.40;99.90
15239;DHT22;7722;53.274;9.500;2024-02-21T00:16:07;8.40;99.90
15239;DHT22;7722;53.274;9.500;2024-02-21T00:18:34;8.40;99.90
15239;DHT22;7722;53.274;9.500;2024-02-21T00:21:01;8.40;99.90
15239;DHT22;7722;53.274;9.500;2024-02-21T00:23:28;8.40;99.90
15239;DHT22;7722;53.274;9.500;2024-02-21T00:25:55;8.40;99.90
15239;DHT22;7722;53.274;9.500;2024-02-21T00:28:24;8.40;99.90
15239;DHT22;7722;53.274;9.500;2024-02-21T00:30:51;8.40;99.90
15239;DHT22;7722;53.274;9.500;2024-02-21T00:33:18;8.50;99.90
15239;DHT22;7722;53.274;9.500;2024-02-21T00:35:45;8.50;99.90
15239;DHT22;7722;53.274;9.500;2024-02-21T00:38:12;8.50;99.90
15239;DHT22;7722;53.274;9.500;2024-02-21T00:40:39;8.50;99.90
15239;DHT22;7722;53.274;9.500;2024-02-21T00:43:07;8.50;99.90
15239;DHT22;7722;53.274;9.500;2024-02-21T00:45:36;8.50;99.90
15239;DHT22;7722;53.274;9.500;2024-02-21T00:48:04;8.60;99.90
15239;DHT22;7722;53.274;9.500;2024-02-21T00:50:31;8.60;99.90
15239;DHT22;7722;53.274;9.500;2024-02-21T00:52:58;8.50;99.90
15239;DHT22;7722;53.274;9.500;2024-02-21T00:55:25;8.60;99.90
15239;DHT22;7722;53.274;9.500;2024-02-21T00:57:52;8.60;99.90
15239;DHT22;7722;53.274;9.500;2024-02-21T01:00:19;8.60;99.90
15239;DHT22;7722;53.274;9.500;2024-02-21T01:02:48;8.60;99.90
15239;DHT22;7722;53.274;9.500;2024-02-21T01:05:16;8.60;99.90
15239;DHT22;7722;53.274;9.500;2024-02-21T01:07:43;8.60;99.90
15239;DHT22;7722;53.274;9.500;2024-02-21T01:10:11;8.60;99.90
15239;DHT22;7722;53.274;9.500;2024-02-21T01:12:38;8.60;99.90
15239;DHT22;7722;53.274;9.500;2024-02-21T01:15:05;8.60;99.90
15239;DHT22;7722;53.274;9.500;2024-02-21T01:17:32;8.60;99.90
15239;DHT22;7722;53.274;9.500;2024-02-21T01:20:01;8.60;99.90
15239;DHT22;7722;53.274;9.500;2024-02-21T01:22:28;8.60;99.90
15239;DHT22;7722;53.274;9.500;2024-02-21T01:24:55;8.60;99.90
15239;DHT22;7722;53.274;9.500;2024-02-21T01:27:22;8.60;99.90
15239;DHT22;7722;53.274;9.500;2024-02-21T01:29:49;8.60;99.90
15239;DHT22;7722;53.274;9.500;2024-02-21T01:32:17;8.60;99.90
15239;DHT22;7722;53.274;9.500;2024-02-21T01:34:44;8.60;99.90
15239;DHT22;7722;53.274;9.500;2024-02-21T01:37:13;8.60;99.90
15239;DHT22;7722;53.274;9.500;2024-02-21T01:39:40;8.60;99.90
15239;DHT22;7722;53.274;9.500;2024-02-21T01:42:07;8.60;99.90
15239;DHT22;7722;53.274;9.500;2024-02-21T01:44:34;8.50;99.90
15239;DHT22;7722;53.274;9.500;2024-02-21T01:47:02;8.50;99.90
15239;DHT22;7722;53.274;9.500;2024-02-21T01:49:29;8.60;99.90
15239;DHT22;7722;53.274;9.500;2024-02-21T01:51:56;8.60;99.90
15239;DHT22;7722;53.274;9.500;2024-02-21T01:54:25;8.60;99.90
15239;DHT22;7722;53.274;9.500;2024-02-21T01:56:54;8.60;99.90
15239;DHT22;7722;53.274;9.500;2024-02-21T01:59:21;8.50;99.90
15239;DHT22;7722;53.274;9.500;2024-02-21T02:01:50;8.50;99.90
15239;DHT22;7722;53.274;9.500;2024-02-21T02:04:19;8.50;99.90
15239;DHT22;7722;53.274;9.500;2024-02-21T02:06:46;8.50;99.90
15239;DHT22;7722;53.274;9.500;2024-02-21T02:09:14;8.50;99.90
15239;DHT22;7722;53.274;9.500;2024-02-21T02:11:43;8.50;99.90
15239;DHT22;7722;53.274;9.500;2024-02-21T02:14:10;8.50;99.90
15239;DHT22;7722;53.274;9.500;2024-02-21T02:16:38;8.50;99.90
15239;DHT22;7722;53.274;9.500;2024-02-21T02:19:05;8.60;99.90
15239;DHT22;7722;53.274;9.500;2024-02-21T02:21:34;8.60;99.90
15239;DHT22;7722;53.274;9.500;2024-02-21T02:24:07;8.60;99.90
15239;DHT22;7722;53.274;9.500;2024-02-21T02:26:35;8.60;99.90
15239;DHT22;7722;53.274;9.500;2024-02-21T02:29:02;8.60;99.90
15239;DHT22;7722;53.274;9.500;2024-02-21T02:31:29;8.60;99.90
15239;DHT22;7722;53.274;9.500;2024-02-21T02:33:56;8.60;99.90
15239;DHT22;7722;53.274;9.500;2024-02-21T02:36:23;8.60;99.90
15239;DHT22;7722;53.274;9.500;2024-02-21T02:38:50;8.60;99.90
15239;DHT22;7722;53.274;9.500;2024-02-21T02:41:18;8.60;99.90
15239;DHT22;7722;53.274;9.500;2024-02-21T02:43:46;8.60;99.90
15239;DHT22;7722;53.274;9.500;2024-02-21T02:46:14;8.60;99.90
15239;DHT22;7722;53.274;9.500;2024-02-21T02:48:41;8.60;99.90
15239;DHT22;7722;53.274;9.500;2024-02-21T02:51:08;8.60;99.90
15239;DHT22;7722;53.274;9.500;2024-02-21T02:53:35;8.60;99.90
15239;DHT22;7722;53.274;9.500;2024-02-21T02:56:03;8.60;99.90
15239;DHT22;7722;53.274;9.500;2024-02-21T02:58:31;8.60;99.90
15239;DHT22;7722;53.274;9.500;2024-02-21T03:01:00;8.60;99.90
15239;DHT22;7722;53.274;9.500;2024-02-21T03:03:28;8.60;99.90
15239;DHT22;7722;53.274;9.500;2024-02-21T03:05:56;8.60;99.90
15239;DHT22;7722;53.274;9.500;2024-02-21T03:08:23;8.60;99.90
15239;DHT22;7722;53.274;9.500;2024-02-21T03:10:50;8.60;99.90
15239;DHT22;7722;53.274;9.500;2024-02-21T03:13:18;8.60;99.90
15239;DHT22;7722;53.274;9.500;2024-02-21T03:15:46;8.60;99.90
15239;DHT22;7722;53.274;9.500;2024-02-21T03:18:13;8.70;99.90
15239;DHT22;7722;53.274;9.500;2024-02-21T03:20:40;8.60;99.90
15239;DHT22;7722;53.274;9.500;2024-02-21T03:23:07;8.60;99.90
15239;DHT22;7722;53.274;9.500;2024-02-21T03:25:34;8.70;99.90
15239;DHT22;7722;53.274;9.500;2024-02-21T03:28:02;8.70;99.90
15239;DHT22;7722;53.274;9.500;2024-02-21T03:30:29;8.70;99.90
15239;DHT22;7722;53.274;9.500;2024-02-21T03:32:57;8.70;99.90
15239;DHT22;7722;53.274;9.500;2024-02-21T03:35:24;8.60;99.90
15239;DHT22;7722;53.274;9.500;2024-02-21T03:37:52;8.70;99.90
15239;DHT22;7722;53.274;9.500;2024-02-21T03:40:21;8.60;99.90
15239;DHT22;7722;53.274;9.500;2024-02-21T03:42:48;8.60;99.90
15239;DHT22;7722;53.274;9.500;2024-02-21T03:45:15;8.60;99.90
15239;DHT22;7722;53.274;9.500;2024-02-21T03:47:43;8.60;99.90
15239;DHT22;7722;53.274;9.500;2024-02-21T03:50:11;8.70;99.90
15239;DHT22;7722;53.274;9.500;2024-02-21T03:52:38;8.60;99.90
15239;DHT22;7722;53.274;9.500;2024-02-21T03:55:06;8.60;99.90
15239;DHT22;7722;53.274;9.500;2024-02-21T03:57:34;8.60;99.90
15239;DHT22;7722;53.274;9.500;2024-02-21T04:00:02;8.60;99.90
15239;DHT22;7722;53.274;9.500;2024-02-21T04:02:29;8.60;99.90
15239;DHT22;7722;53.274;9.500;2024-02-21T04:04:56;8.60;99.90
15239;DHT22;7722;53.274;9.500;2024-02-21T04:07:25;8.60;99.90
15239;DHT22;7722;53.274;9.500;2024-02-21T04:09:52;8.60;99.90
15239;DHT22;7722;53.274;9.500;2024-02-21T04:12:19;8.50;99.90
15239;DHT22;7722;53.274;9.500;2024-02-21T04:14:46;8.50;99.90
15239;DHT22;7722;53.274;9.500;2024-02-21T04:17:13;8.50;99.90
15239;DHT22;7722;53.274;9.500;2024-02-21T04:19:40;8.40;99.90
15239;DHT22;7722;53.274;9.500;2024-02-21T04:22:07;8.40;99.90
15239;DHT22;7722;53.274;9.500;2024-02-21T04:24:36;8.40;99.90
15239;DHT22;7722;53.274;9.500;2024-02-21T04:27:03;8.40;99.90
15239;DHT22;7722;53.274;9.500;2024-02-21T04:29:31;8.40;99.90
15239;DHT22;7722;53.274;9.500;2024-02-21T04:31:59;8.30;99.90
15239;DHT22;7722;53.274;9.500;2024-02-21T04:34:26;8.30;99.90
15239;DHT22;7722;53.274;9.500;2024-02-21T04:36:53;8.30;99.90
15239;DHT22;7722;53.274;9.500;2024-02-21T04:39:20;8.30;99.90
15239;DHT22;7722;53.274;9.500;2024-02-21T04:41:48;8.30;99.90
15239;DHT22;7722;53.274;9.500;2024-02-21T04:44:15;8.20;99.90
15239;DHT22;7722;53.274;9.500;2024-02-21T04:46:43;8.20;99.90
15239;DHT22;7722;53.274;9.500;2024-02-21T04:49:10;8.20;99.90
15239;DHT22;7722;53.274;9.500;2024-02-21T04:51:37;8.20;99.90
15239;DHT22;7722;53.274;9.500;2024-02-21T04:54:04;8.20;99.90
15239;DHT22;7722;53.274;9.500;2024-02-21T04:56:31;8.20;99.90
15239;DHT22;7722;53.274;9.500;2024-02-21T04:59:00;8.20;99.90
15239;DHT22;7722;53.274;9.500;2024-02-21T05:01:28;8.20;99.90
15239;DHT22;7722;53.274;9.500;2024-02-21T05:03:55;8.20;99.90
15239;DHT22;7722;53.274;9.500;2024-02-21T05:06:22;8.10;99.90
15239;DHT22;7722;53.274;9.500;2024-02-21T05:08:49;8.10;99.90
15239;DHT22;7722;53.274;9.500;2024-02-21T05:11:16;8.10;99.90
15239;DHT22;7722;53.274;9.500;2024-02-21T05:13:43;8.10;99.90
15239;DHT22;7722;53.274;9.500;2024-02-21T05:16:12;8.10;99.90
15239;DHT22;7722;53.274;9.500;2024-02-21T05:18:40;8.20;99.90
15239;DHT22;7722;53.274;9.500;2024-02-21T05:21:08;8.10;99.90
15239;DHT22;7722;53.274;9.500;2024-02-21T05:23:35;8.10;99.90
15239;DHT22;7722;53.274;9.500;2024-02-21T05:26:03;8.10;99.90
15239;DHT22;7722;53.274;9.500;2024-02-21T05:28:31;8.10;99.90
15239;DHT22;7722;53.274;9.500;2024-02-21T05:30:58;8.10;99.90
15239;DHT22;7722;53.274;9.500;2024-02-21T05:33:27;8.10;99.90
15239;DHT22;7722;53.274;9.500;2024-02-21T05:35:55;8.10;99.90
15239;DHT22;7722;53.274;9.500;2024-02-21T05:38:22;8.20;99.90
15239;DHT22;7722;53.274;9.500;2024-02-21T05:40:49;8.10;99.90
15239;DHT22;7722;53.274;9.500;2024-02-21T05:43:16;8.10;99.90
15239;DHT22;7722;53.274;9.500;2024-02-21T05:45:43;8.10;99.90
15239;DHT22;7722;53.274;9.500;2024-02-21T05:48:10;8.10;99.90
15239;DHT22;7722;53.274;9.500;2024-02-21T05:50:39;8.20;99.90
15239;DHT22;7722;53.274;9.500;2024-02-21T05:53:06;8.10;99.90
15239;DHT22;7722;53.274;9.500;2024-02-21T05:55:33;8.20;99.90
15239;DHT22;7722;53.274;9.500;2024-02-21T05:58:00;8.10;99.90
15239;DHT22;7722;53.274;9.500;2024-02-21T06:00:27;8.20;99.90
15239;DHT22;7722;53.274;9.500;2024-02-21T06:02:55;8.10;99.90
15239;DHT22;7722;53.274;9.500;2024-02-21T06:05:22;8.20;99.90
15239;DHT22;7722;53.274;9.500;2024-02-21T06:07:50;8.10;99.90
15239;DHT22;7722;53.274;9.500;2024-02-21T06:10:17;8.10;99.90
15239;DHT22;7722;53.274;9.500;2024-02-21T06:12:45;8.10;99.90
15239;DHT22;7722;53.274;9.500;2024-02-21T06:15:12;8.10;99.90
15239;DHT22;7722;53.274;9.500;2024-02-21T06:17:39;8.10;99.90
15239;DHT22;7722;53.274;9.500;2024-02-21T06:20:07;8.10;99.90
15239;DHT22;7722;53.274;9.500;2024-02-21T06:22:34;8.10;99.90
15239;DHT22;7722;53.274;9.500;2024-02-21T06:25:03;8.10;99.90
15239;DHT22;7722;53.274;9.500;2024-02-21T06:27:30;8.10;99.90
15239;DHT22;7722;53.274;9.500;2024-02-21T06:29:57;8.10;99.90
15239;DHT22;7722;53.274;9.500;2024-02-21T06:32:24;8.10;99.90
15239;DHT22;7722;53.274;9.500;2024-02-21T06:34:51;8.10;99.90
15239;DHT22;7722;53.274;9.500;2024-02-21T06:37:18;8.10;99.90
15239;DHT22;7722;53.274;9.500;2024-02-21T06:39:45;8.10;99.90
15239;DHT22;7722;53.274;9.500;2024-02-21T06:42:14;8.10;99.90
15239;DHT22;7722;53.274;9.500;2024-02-21T06:44:41;8.10;99.90
15239;DHT22;7722;53.274;9.500;2024-02-21T06:47:08;8.10;99.90
15239;DHT22;7722;53.274;9.500;2024-02-21T06:49:35;8.10;99.90
15239;DHT22;7722;53.274;9.500;2024-02-21T06:52:04;8.10;99.90
15239;DHT22;7722;53.274;9.500;2024-02-21T06:54:31;8.10;99.90
15239;DHT22;7722;53.274;9.500;2024-02-21T06:56:58;8.10;99.90
15239;DHT22;7722;53.274;9.500;2024-02-21T06:59:29;8.10;99.90
15239;DHT22;7722;53.274;9.500;2024-02-21T07:01:56;8.10;99.90
15239;DHT22;7722;53.274;9.500;2024-02-21T07:04:23;8.10;99.90
15239;DHT22;7722;53.274;9.500;2024-02-21T07:06:50;8.10;99.90
15239;DHT22;7722;53.274;9.500;2024-02-21T07:09:17;8.10;99.90
15239;DHT22;7722;53.274;9.500;2024-02-21T07:11:45;8.10;99.90
15239;DHT22;7722;53.274;9.500;2024-02-21T07:14:13;8.20;99.90
15239;DHT22;7722;53.274;9.500;2024-02-21T07:16:42;8.20;99.90
15239;DHT22;7722;53.274;9.500;2024-02-21T07:19:09;8.20;99.90
15239;DHT22;7722;53.274;9.500;2024-02-21T07:21:36;8.20;99.90
15239;DHT22;7722;53.274;9.500;2024-02-21T07:24:07;8.20;99.90
15239;DHT22;7722;53.274;9.500;2024-02-21T07:26:34;8.20;99.90
15239;DHT22;7722;53.274;9.500;2024-02-21T07:29:01;8.20;99.90
15239;DHT22;7722;53.274;9.500;2024-02-21T07:31:28;8.20;99.90
15239;DHT22;7722;53.274;9.500;2024-02-21T07:33:57;8.20;99.90
15239;DHT22;7722;53.274;9.500;2024-02-21T07:36:29;8.20;99.90
15239;DHT22;7722;53.274;9.500;2024-02-21T07:38:56;8.20;99.90
15239;DHT22;7722;53.274;9.500;2024-02-21T07:41:24;8.20;99.90
15239;DHT22;7722;53.274;9.500;2024-02-21T07:43:51;8.20;99.90
15239;DHT22;7722;53.274;9.500;2024-02-21T07:46:18;8.20;99.90
15239;DHT22;7722;53.274;9.500;2024-02-21T07:48:46;8.20;99.90
15239;DHT22;7722;53.274;9.500;2024-02-21T07:51:14;8.20;99.90
15239;DHT22;7722;53.274;9.500;2024-02-21T07:53:43;8.20;99.90
15239;DHT22;7722;53.274;9.500;2024-02-21T07:56:11;8.20;99.90
15239;DHT22;7722;53.274;9.500;2024-02-21T07:58:39;8.20;99.90
15239;DHT22;7722;53.274;9.500;2024-02-21T08:01:06;8.20;99.90
15239;DHT22;7722;53.274;9.500;2024-02-21T08:03:33;8.20;99.90
15239;DHT22;7722;53.274;9.500;2024-02-21T08:06:00;8.30;99.90
15239;DHT22;7722;53.274;9.500;2024-02-21T08:08:29;8.30;99.90
15239;DHT22;7722;53.274;9.500;2024-02-21T08:10:56;8.20;99.90
15239;DHT22;7722;53.274;9.500;2024-02-21T08:13:23;8.30;99.90
15239;DHT22;7722;53.274;9.500;2024-02-21T08:15:50;8.30;99.90
15239;DHT22;7722;53.274;9.500;2024-02-21T08:18:17;8.30;99.90
15239;DHT22;7722;53.274;9.500;2024-02-21T08:20:44;8.30;99.90
15239;DHT22;7722;53.274;9.500;2024-02-21T08:23:11;8.30;99.90
15239;DHT22;7722;53.274;9.500;2024-02-21T08:25:39;8.30;99.90
15239;DHT22;7722;53.274;9.500;2024-02-21T08:28:06;8.40;99.90
15239;DHT22;7722;53.274;9.500;2024-02-21T08:30:34;8.40;99.90
15239;DHT22;7722;53.274;9.500;2024-02-21T08:33:01;8.40;99.90
15239;DHT22;7722;53.274;9.500;2024-02-21T08:35:29;8.40;99.90
15239;DHT22;7722;53.274;9.500;2024-02-21T08:37:56;8.40;99.90
15239;DHT22;7722;53.274;9.500;2024-02-21T08:40:23;8.50;99.90
15239;DHT22;7722;53.274;9.500;2024-02-21T08:42:51;8.50;99.90
15239;DHT22;7722;53.274;9.500;2024-02-21T08:45:19;8.50;99.90
15239;DHT22;7722;53.274;9.500;2024-02-21T08:47:46;8.40;99.90
15239;DHT22;7722;53.274;9.500;2024-02-21T08:50:13;8.40;99.90
15239;DHT22;7722;53.274;9.500;2024-02-21T08:52:40;8.40;99.90
15239;DHT22;7722;53.274;9.500;2024-02-21T08:55:08;8.40;99.90
15239;DHT22;7722;53.274;9.500;2024-02-21T08:57:35;8.40;99.90
15239;DHT22;7722;53.274;9.500;2024-02-21T09:00:06;8.40;99.90
15239;DHT22;7722;53.274;9.500;2024-02-21T09:02:36;8.50;99.90
15239;DHT22;7722;53.274;9.500;2024-02-21T09:05:04;8.50;99.90
15239;DHT22;7722;53.274;9.500;2024-02-21T09:07:32;8.40;99.90
15239;DHT22;7722;53.274;9.500;2024-02-21T09:09:59;8.50;99.90
15239;DHT22;7722;53.274;9.500;2024-02-21T09:12:26;8.50;99.90
15239;DHT22;7722;53.274;9.500;2024-02-21T09:14:53;8.50;99.90
15239;DHT22;7722;53.274;9.500;2024-02-21T09:17:22;8.50;99.90
15239;DHT22;7722;53.274;9.500;2024-02-21T09:19:50;8.50;99.90
15239;DHT22;7722;53.274;9.500;2024-02-21T09:22:17;8.50;99.90
15239;DHT22;7722;53.274;9.500;2024-02-21T09:24:44;8.50;99.90
15239;DHT22;7722;53.274;9.500;2024-02-21T09:27:13;8.60;99.90
15239;DHT22;7722;53.274;9.500;2024-02-21T09:29:40;8.50;99.90
15239;DHT22;7722;53.274;9.500;2024-02-21T09:32:07;8.60;99.90
15239;DHT22;7722;53.274;9.500;2024-02-21T09:34:35;8.60;99.90
15239;DHT22;7722;53.274;9.500;2024-02-21T09:37:02;8.60;99.90
15239;DHT22;7722;53.274;9.500;2024-02-21T09:39:30;8.60;99.90
15239;DHT22;7722;53.274;9.500;2024-02-21T09:42:00;8.70;99.90
15239;DHT22;7722;53.274;9.500;2024-02-21T09:44:35;8.60;99.90
15239;DHT22;7722;53.274;9.500;2024-02-21T09:47:03;8.70;99.90
15239;DHT22;7722;53.274;9.500;2024-02-21T09:49:33;8.70;99.90
15239;DHT22;7722;53.274;9.500;2024-02-21T09:52:06;8.80;99.90
15239;DHT22;7722;53.274;9.500;2024-02-21T09:54:33;8.80;99.90
15239;DHT22;7722;53.274;9.500;2024-02-21T09:57:01;8.90;99.90
15239;DHT22;7722;53.274;9.500;2024-02-21T09:59:30;9.00;99.90
15239;DHT22;7722;53.274;9.500;2024-02-21T10:01:57;9.00;99.90
15239;DHT22;7722;53.274;9.500;2024-02-21T10:04:26;9.10;99.90
15239;DHT22;7722;53.274;9.500;2024-02-21T10:06:54;9.20;99.90
15239;DHT22;7722;53.274;9.500;2024-02-21T10:09:24;9.20;99.90
15239;DHT22;7722;53.274;9.500;2024-02-21T10:11:53;9.20;99.90
15239;DHT22;7722;53.274;9.500;2024-02-21T10:14:21;9.20;99.90
15239;DHT22;7722;53.274;9.500;2024-02-21T10:16:49;9.20;99.90
15239;DHT22;7722;53.274;9.500;2024-02-21T10:19:23;9.10;99.90
15239;DHT22;7722;53.274;9.500;2024-02-21T10:22:01;9.10;99.90
15239;DHT22;7722;53.274;9.500;2024-02-21T10:24:30;9.20;99.90
15239;DHT22;7722;53.274;9.500;2024-02-21T10:27:05;9.10;99.90
15239;DHT22;7722;53.274;9.500;2024-02-21T10:29:33;9.20;99.90
15239;DHT22;7722;53.274;9.500;2024-02-21T10:32:05;9.10;99.90
15239;DHT22;7722;53.274;9.500;2024-02-21T10:34:32;9.00;99.90
15239;DHT22;7722;53.274;9.500;2024-02-21T10:37:01;9.10;99.90
15239;DHT22;7722;53.274;9.500;2024-02-21T10:39:31;9.10;99.90
15239;DHT22;7722;53.274;9.500;2024-02-21T10:42:00;9.10;99.90
15239;DHT22;7722;53.274;9.500;2024-02-21T10:44:29;9.10;99.90
15239;DHT22;7722;53.274;9.500;2024-02-21T10:46:57;9.20;99.90
15239;DHT22;7722;53.274;9.500;2024-02-21T10:49:25;9.20;99.90
15239;DHT22;7722;53.274;9.500;2024-02-21T10:51:58;9.10;99.90
15239;DHT22;7722;53.274;9.500;2024-02-21T10:54:39;9.10;99.90
15239;DHT22;7722;53.274;9.500;2024-02-21T10:57:10;9.00;99.90
15239;DHT22;7722;53.274;9.500;2024-02-21T10:59:39;9.00;99.90
15239;DHT22;7722;53.274;9.500;2024-02-21T11:02:07;9.00;99.90
15239;DHT22;7722;53.274;9.500;2024-02-21T11:04:34;9.00;99.90
15239;DHT22;7722;53.274;9.500;2024-02-21T11:07:03;9.00;99.90
15239;DHT22;7722;53.274;9.500;2024-02-21T11:09:32;9.00;99.90
15239;DHT22;7722;53.274;9.500;2024-02-21T11:12:02;9.00;99.90
15239;DHT22;7722;53.274;9.500;2024-02-21T11:14:31;9.00;99.90
15239;DHT22;7722;53.274;9.500;2024-02-21T11:17:01;8.90;99.90
15239;DHT22;7722;53.274;9.500;2024-02-21T11:19:29;8.90;99.90
15239;DHT22;7722;53.274;9.500;2024-02-21T11:21:57;8.90;99.90
15239;DHT22;7722;53.274;9.500;2024-02-21T11:24:27;8.80;99.90
15239;DHT22;7722;53.274;9.500;2024-02-21T11:26:55;8.90;99.90
15239;DHT22;7722;53.274;9.500;2024-02-21T11:29:27;8.90;99.90
15239;DHT22;7722;53.274;9.500;2024-02-21T11:31:55;8.90;99.90
15239;DHT22;7722;53.274;9.500;2024-02-21T11:34:22;8.90;99.90
15239;DHT22;7722;53.274;9.500;2024-02-21T11:36:49;8.90;99.90
15239;DHT22;7722;53.274;9.500;2024-02-21T11:39:21;8.80;99.90
15239;DHT22;7722;53.274;9.500;2024-02-21T11:42:03;9.00;99.90
15239;DHT22;7722;53.274;9.500;2024-02-21T11:44:32;9.00;99.90
15239;DHT22;7722;53.274;9.500;2024-02-21T11:46:59;9.10;99.90
15239;DHT22;7722;53.274;9.500;2024-02-21T11:49:28;9.20;99.90
15239;DHT22;7722;53.274;9.500;2024-02-21T11:51:59;9.20;99.90
15239;DHT22;7722;53.274;9.500;2024-02-21T11:54:27;9.20;99.90
15239;DHT22;7722;53.274;9.500;2024-02-21T11:56:54;9.20;99.90
15239;DHT22;7722;53.274;9.500;2024-02-21T11:59:21;9.30;99.90
15239;DHT22;7722;53.274;9.500;2024-02-21T12:01:49;9.40;99.90
15239;DHT22;7722;53.274;9.500;2024-02-21T12:04:18;9.50;99.90
15239;DHT22;7722;53.274;9.500;2024-02-21T12:06:46;9.70;99.90
15239;DHT22;7722;53.274;9.500;2024-02-21T12:09:14;9.80;99.90
15239;DHT22;7722;53.274;9.500;2024-02-21T12:11:42;9.80;99.90
15239;DHT22;7722;53.274;9.500;2024-02-21T12:14:09;10.00;99.90
15239;DHT22;7722;53.274;9.500;2024-02-21T12:16:36;10.00;99.90
15239;DHT22;7722;53.274;9.500;2024-02-21T12:19:05;10.10;99.90
15239;DHT22;7722;53.274;9.500;2024-02-21T12:21:33;10.20;99.90
15239;DHT22;7722;53.274;9.500;2024-02-21T12:24:11;10.30;99.90
15239;DHT22;7722;53.274;9.500;2024-02-21T12:26:39;10.30;99.90
15239;DHT22;7722;53.274;9.500;2024-02-21T12:29:06;10.20;99.90
15239;DHT22;7722;53.274;9.500;2024-02-21T12:31:35;10.20;99.90
15239;DHT22;7722;53.274;9.500;2024-02-21T12:34:02;10.20;99.90
15239;DHT22;7722;53.274;9.500;2024-02-21T12:36:31;10.20;99.90
15239;DHT22;7722;53.274;9.500;2024-02-21T12:38:58;10.10;99.90
15239;DHT22;7722;53.274;9.500;2024-02-21T12:41:26;10.20;99.90
15239;DHT22;7722;53.274;9.500;2024-02-21T12:43:54;10.20;99.90
15239;DHT22;7722;53.274;9.500;2024-02-21T12:46:21;10.30;99.90
15239;DHT22;7722;53.274;9.500;2024-02-21T12:48:49;10.20;99.90
15239;DHT22;7722;53.274;9.500;2024-02-21T12:51:16;10.30;99.90
15239;DHT22;7722;53.274;9.500;2024-02-21T12:53:48;10.30;99.90
15239;DHT22;7722;53.274;9.500;2024-02-21T12:56:15;10.20;99.90
15239;DHT22;7722;53.274;9.500;2024-02-21T12:58:42;10.20;99.90
15239;DHT22;7722;53.274;9.500;2024-02-21T13:01:12;10.20;99.90
15239;DHT22;7722;53.274;9.500;2024-02-21T13:03:39;10.20;99.90
15239;DHT22;7722;53.274;9.500;2024-02-21T13:06:06;10.20;99.90
15239;DHT22;7722;53.274;9.500;2024-02-21T13:08:36;10.20;99.90
15239;DHT22;7722;53.274;9.500;2024-02-21T13:11:05;10.20;99.90
15239;DHT22;7722;53.274;9.500;2024-02-21T13:13:32;10.20;99.90
15239;DHT22;7722;53.274;9.500;2024-02-21T13:15:59;10.10;99.90
15239;DHT22;7722;53.274;9.500;2024-02-21T13:18:26;10.30;99.90
15239;DHT22;7722;53.274;9.500;2024-02-21T13:20:56;10.40;99.90
15239;DHT22;7722;53.274;9.500;2024-02-21T13:23:23;10.50;99.90
15239;DHT22;7722;53.274;9.500;2024-02-21T13:25:50;10.50;99.90
15239;DHT22;7722;53.274;9.500;2024-02-21T13:28:19;10.50;99.90
15239;DHT22;7722;53.274;9.500;2024-02-21T13:30:46;10.70;99.90
15239;DHT22;7722;53.274;9.500;2024-02-21T13:33:13;10.70;99.90
15239;DHT22;7722;53.274;9.500;2024-02-21T13:35:40;10.80;99.90
15239;DHT22;7722;53.274;9.500;2024-02-21T13:38:07;10.70;99.90
15239;DHT22;7722;53.274;9.500;2024-02-21T13:40:35;10.60;99.90
15239;DHT22;7722;53.274;9.500;2024-02-21T13:43:02;10.60;99.90
15239;DHT22;7722;53.274;9.500;2024-02-21T13:45:31;10.70;99.90
15239;DHT22;7722;53.274;9.500;2024-02-21T13:47:58;10.80;99.90
15239;DHT22;7722;53.274;9.500;2024-02-21T13:50:30;10.80;99.90
15239;DHT22;7722;53.274;9.500;2024-02-21T13:52:57;10.80;99.90
15239;DHT22;7722;53.274;9.500;2024-02-21T13:55:25;10.80;99.90
15239;DHT22;7722;53.274;9.500;2024-02-21T13:57:52;10.80;99.90
15239;DHT22;7722;53.274;9.500;2024-02-21T14:00:20;10.80;99.90
15239;DHT22;7722;53.274;9.500;2024-02-21T14:02:48;10.70;99.90
15239;DHT22;7722;53.274;9.500;2024-02-21T14:05:15;10.70;99.90
15239;DHT22;7722;53.274;9.500;2024-02-21T14:07:42;10.80;99.90
15239;DHT22;7722;53.274;9.500;2024-02-21T14:10:09;10.80;99.90
15239;DHT22;7722;53.274;9.500;2024-02-21T14:12:36;10.70;99.90
15239;DHT22;7722;53.274;9.500;2024-02-21T14:15:07;10.70;99.90
15239;DHT22;7722;53.274;9.500;2024-02-21T14:17:34;10.50;99.90
15239;DHT22;7722;53.274;9.500;2024-02-21T14:20:03;10.50;99.90
15239;DHT22;7722;53.274;9.500;2024-02-21T14:22:31;10.60;99.90
15239;DHT22;7722;53.274;9.500;2024-02-21T14:24:58;10.60;99.90
15239;DHT22;7722;53.274;9.500;2024-02-21T14:27:26;10.40;99.90
15239;DHT22;7722;53.274;9.500;2024-02-21T14:29:54;10.50;99.90
15239;DHT22;7722;53.274;9.500;2024-02-21T14:32:21;10.50;99.90
15239;DHT22;7722;53.274;9.500;2024-02-21T14:34:49;10.50;99.90
15239;DHT22;7722;53.274;9.500;2024-02-21T14:37:17;10.50;99.90
15239;DHT22;7722;53.274;9.500;2024-02-21T14:39:44;10.40;99.90
15239;DHT22;7722;53.274;9.500;2024-02-21T14:42:11;10.30;99.90
15239;DHT22;7722;53.274;9.500;2024-02-21T14:44:38;10.40;99.90
15239;DHT22;7722;53.274;9.500;2024-02-21T14:47:06;10.40;99.90
15239;DHT22;7722;53.274;9.500;2024-02-21T14:49:33;10.40;99.90
15239;DHT22;7722;53.274;9.500;2024-02-21T14:52:01;10.30;99.90
15239;DHT22;7722;53.274;9.500;2024-02-21T14:54:29;10.30;99.90
15239;DHT22;7722;53.274;9.500;2024-02-21T14:56:57;10.10;99.90
15239;DHT22;7722;53.274;9.500;2024-02-21T14:59:24;10.10;99.90
15239;DHT22;7722;53.274;9.500;2024-02-21T15:01:51;10.10;99.90
15239;DHT22;7722;53.274;9.500;2024-02-21T15:04:18;10.10;99.90
15239;DHT22;7722;53.274;9.500;2024-02-21T15:06:45;10.10;99.90
15239;DHT22;7722;53.274;9.500;2024-02-21T15:09:14;10.00;99.90
15239;DHT22;7722;53.274;9.500;2024-02-21T15:11:42;10.00;99.90
15239;DHT22;7722;53.274;9.500;2024-02-21T15:14:09;10.00;99.90
15239;DHT22;7722;53.274;9.500;2024-02-21T15:16:36;10.00;99.90
15239;DHT22;7722;53.274;9.500;2024-02-21T15:19:03;9.90;99.90
15239;DHT22;7722;53.274;9.500;2024-02-21T15:21:30;9.80;99.90
15239;DHT22;7722;53.274;9.500;2024-02-21T15:23:57;9.80;99.90
15239;DHT22;7722;53.274;9.500;2024-02-21T15:26:26;9.80;99.90
15239;DHT22;7722;53.274;9.500;2024-02-21T15:28:55;9.80;99.90
15239;DHT22;7722;53.274;9.500;2024-02-21T15:31:23;9.80;99.90
15239;DHT22;7722;53.274;9.500;2024-02-21T15:33:50;9.80;99.90
15239;DHT22;7722;53.274;9.500;2024-02-21T15:36:17;9.80;99.90
15239;DHT22;7722;53.274;9.500;2024-02-21T15:38:45;9.80;99.90
15239;DHT22;7722;53.274;9.500;2024-02-21T15:41:12;9.80;99.90
15239;DHT22;7722;53.274;9.500;2024-02-21T15:43:40;9.70;99.90
15239;DHT22;7722;53.274;9.500;2024-02-21T15:46:11;9.60;99.90
15239;DHT22;7722;53.274;9.500;2024-02-21T15:48:38;9.50;99.90
15239;DHT22;7722;53.274;9.500;2024-02-21T15:51:05;9.60;99.90
15239;DHT22;7722;53.274;9.500;2024-02-21T15:53:32;9.60;99.90
15239;DHT22;7722;53.274;9.500;2024-02-21T15:56:00;9.60;99.90
15239;DHT22;7722;53.274;9.500;2024-02-21T15:58:28;9.60;99.90
15239;DHT22;7722;53.274;9.500;2024-02-21T16:00:57;9.50;99.90
15239;DHT22;7722;53.274;9.500;2024-02-21T16:03:25;9.50;99.90